createdAt,value
2019-04-18T00:04:53.095Z,52
2019-04-18T00:09:56.146Z,51
2019-04-18T00:14:52.492Z,58
2019-04-18T00:19:52.886Z,58
2019-04-18T00:24:53.076Z,50
2019-04-18T00:29:57.606Z,52
2019-04-18T00:34:52.768Z,52
2019-04-18T00:39:52.715Z,55
2019-04-18T00:44:52.850Z,54
2019-04-18T00:49:53.120Z,55
2019-04-18T00:54:55.111Z,56
2019-04-18T00:59:55.211Z,55
2019-04-18T01:04:52.538Z,53
2019-04-18T01:09:53.002Z,60
2019-04-18T01:14:52.980Z,57
2019-04-18T01:19:55.092Z,49
2019-04-18T01:24:52.705Z,58
2019-04-18T01:29:52.781Z,48
2019-04-18T01:34:52.727Z,53
2019-04-18T01:39:52.787Z,53
2019-04-18T01:44:52.810Z,50
2019-04-18T01:49:52.525Z,52
2019-04-18T01:54:52.822Z,55
2019-04-18T01:59:52.792Z,55
2019-04-18T02:05:00.712Z,56
2019-04-18T02:09:53.945Z,47
2019-04-18T02:14:52.410Z,51
2019-04-18T02:19:52.680Z,53
2019-04-18T02:24:52.534Z,37
2019-04-18T02:29:52.715Z,47
2019-04-18T02:34:53.252Z,50
2019-04-18T02:39:52.625Z,38
2019-04-18T02:44:52.765Z,48
2019-04-18T02:49:52.783Z,40
2019-04-18T02:54:52.631Z,44
2019-04-18T02:59:52.357Z,46
2019-04-18T03:04:53.450Z,42
2019-04-18T03:09:52.554Z,43
2019-04-18T03:14:52.875Z,39
2019-04-18T03:19:52.550Z,40
2019-04-18T03:24:52.474Z,40
2019-04-18T03:29:53.356Z,41
2019-04-18T03:34:52.403Z,32
2019-04-18T03:39:52.487Z,35
2019-04-18T03:44:52.455Z,37
2019-04-18T03:49:52.307Z,35
2019-04-18T03:54:52.373Z,28
2019-04-18T03:59:52.370Z,40
2019-04-18T04:04:55.066Z,34
2019-04-18T04:09:52.468Z,42
2019-04-18T04:14:52.556Z,35
2019-04-18T04:19:53.898Z,30
2019-04-18T04:24:52.578Z,33
2019-04-18T04:29:52.356Z,37
2019-04-18T04:34:52.535Z,37
2019-04-18T04:39:53.289Z,31
2019-04-18T04:44:52.146Z,30
2019-04-18T04:49:52.416Z,36
2019-04-18T04:54:52.431Z,35
2019-04-18T04:59:52.512Z,38
2019-04-18T05:04:54.685Z,33
2019-04-18T05:09:52.330Z,29
2019-04-18T05:14:52.336Z,34
2019-04-18T05:19:52.264Z,34
2019-04-18T05:24:52.523Z,35
2019-04-18T05:29:52.283Z,37
2019-04-18T05:34:52.185Z,37
2019-04-18T05:39:52.228Z,32
2019-04-18T05:44:52.133Z,41
2019-04-18T05:49:52.283Z,40
2019-04-18T05:54:52.139Z,33
2019-04-18T05:59:54.547Z,35
2019-04-18T06:04:52.307Z,33
2019-04-18T06:09:52.102Z,34
2019-04-18T06:14:52.066Z,37
2019-04-18T06:19:54.824Z,28
2019-04-18T06:24:52.259Z,33
2019-04-18T06:29:52.066Z,36
2019-04-18T06:34:52.049Z,35
2019-04-18T06:39:53.983Z,33
2019-04-18T06:44:52.199Z,40
2019-04-18T06:49:52.221Z,26
2019-04-18T06:54:52.428Z,36
2019-04-18T06:59:55.736Z,24
2019-04-18T07:04:52.190Z,31
2019-04-18T07:09:54.919Z,28
2019-04-18T07:14:52.287Z,37
2019-04-18T07:19:52.711Z,32
2019-04-18T07:24:52.355Z,32
2019-04-18T07:29:55.643Z,31
2019-04-18T07:34:52.278Z,32
2019-04-18T07:39:52.383Z,29
2019-04-18T07:44:52.391Z,34
2019-04-18T07:49:51.941Z,25
2019-04-18T07:54:52.163Z,28
2019-04-18T07:59:52.093Z,23
2019-04-18T08:04:52.009Z,30
2019-04-18T08:09:52.230Z,31
2019-04-18T08:14:52.112Z,39
2019-04-18T08:19:53.731Z,27
2019-04-18T08:24:52.067Z,27
2019-04-18T08:29:52.147Z,32
2019-04-18T08:34:52.187Z,31
2019-04-18T08:39:52.063Z,27
2019-04-18T08:44:55.366Z,26
2019-04-18T08:49:52.075Z,24
2019-04-18T08:54:51.963Z,33
2019-04-18T08:59:52.462Z,25
2019-04-18T09:04:54.468Z,30
2019-04-18T09:09:53.113Z,29
2019-04-18T09:14:52.152Z,30
2019-04-18T09:20:08.862Z,24
2019-04-18T09:24:52.256Z,21
2019-04-18T09:29:54.229Z,21
2019-04-18T09:34:52.046Z,23
2019-04-18T09:39:52.268Z,25
2019-04-18T09:44:53.823Z,32
2019-04-18T09:49:52.201Z,23
2019-04-18T09:54:51.897Z,27
2019-04-18T09:59:52.048Z,23
2019-04-18T10:04:51.989Z,23
2019-04-18T10:09:51.968Z,23
2019-04-18T10:14:51.859Z,23
2019-04-18T10:19:52.044Z,23
2019-04-18T10:24:51.925Z,18
2019-04-18T10:29:52.154Z,18
2019-04-18T10:34:53.304Z,22
2019-04-18T10:39:52.028Z,23
2019-04-18T10:44:51.919Z,23
2019-04-18T10:49:51.929Z,22
2019-04-18T10:54:51.633Z,20
2019-04-18T10:59:53.649Z,18
2019-04-18T11:04:51.784Z,26
2019-04-18T11:09:51.805Z,27
2019-04-18T11:14:51.906Z,18
2019-04-18T11:19:51.889Z,18
2019-04-18T11:24:51.654Z,16
2019-04-18T11:29:51.703Z,24
2019-04-18T11:34:51.818Z,22
2019-04-18T11:39:56.791Z,19
2019-04-18T11:44:51.541Z,16
2019-04-18T11:49:51.702Z,20
2019-04-18T11:54:51.881Z,18
2019-04-18T11:59:51.556Z,16
2019-04-18T12:04:51.632Z,15
2019-04-18T12:09:51.704Z,21
2019-04-18T12:14:51.727Z,15
2019-04-18T12:19:51.898Z,14
2019-04-18T12:24:51.509Z,17
2019-04-18T12:29:51.696Z,19
2019-04-18T12:34:51.907Z,13
2019-04-18T12:39:51.810Z,17
2019-04-18T12:44:51.594Z,21
2019-04-18T12:49:51.590Z,19
2019-04-18T12:54:51.656Z,20
2019-04-18T12:59:51.646Z,20
2019-04-18T13:04:51.807Z,14
2019-04-18T13:09:51.554Z,18
2019-04-18T13:14:53.947Z,12
2019-04-18T13:19:51.705Z,17
2019-04-18T13:24:51.590Z,17
2019-04-18T13:29:51.821Z,14
2019-04-18T13:34:51.340Z,14
2019-04-18T13:39:51.755Z,14
2019-04-18T13:44:51.453Z,15
2019-04-18T13:49:51.740Z,14
2019-04-18T13:54:51.702Z,17
2019-04-18T13:59:51.426Z,16
2019-04-18T14:04:51.872Z,16
2019-04-18T14:09:51.670Z,20
2019-04-18T14:14:51.729Z,19
2019-04-18T14:19:51.604Z,17
2019-04-18T14:24:51.344Z,17
2019-04-18T14:29:51.499Z,18
2019-04-18T14:34:51.459Z,18
2019-04-18T14:39:51.656Z,14
2019-04-18T14:44:51.217Z,18
2019-04-18T14:49:51.678Z,18
2019-04-18T14:54:51.329Z,16
2019-04-18T14:59:51.580Z,17
2019-04-18T15:04:52.388Z,19
2019-04-18T15:09:51.992Z,22
2019-04-18T15:14:51.688Z,21
2019-04-18T15:19:51.326Z,22
2019-04-18T15:24:51.383Z,20
2019-04-18T15:29:51.504Z,20
2019-04-18T15:34:51.623Z,23
2019-04-18T15:39:51.990Z,23
2019-04-18T15:44:52.169Z,20
2019-04-18T15:49:52.012Z,21
2019-04-18T15:54:51.496Z,22
2019-04-18T15:59:51.602Z,22
2019-04-18T16:04:51.305Z,20
2019-04-18T16:09:51.519Z,21
2019-04-18T16:14:51.404Z,21
2019-04-18T16:19:51.575Z,18
2019-04-18T16:24:51.435Z,31
2019-04-18T16:29:51.400Z,19
2019-04-18T16:34:51.438Z,18
2019-04-18T16:39:51.426Z,18
2019-04-18T16:44:51.256Z,29
2019-04-18T16:49:51.202Z,25
2019-04-18T16:54:51.273Z,21
2019-04-18T16:59:51.414Z,23
2019-04-18T17:04:51.445Z,17
2019-04-18T17:09:51.489Z,26
2019-04-18T17:14:51.084Z,20
2019-04-18T17:19:51.111Z,23
2019-04-18T17:24:51.148Z,23
2019-04-18T17:29:51.156Z,24
2019-04-18T17:34:57.088Z,22
2019-04-18T17:40:01.395Z,24
2019-04-18T17:44:55.190Z,24
2019-04-18T17:49:57.539Z,22
2019-04-18T17:55:13.148Z,27
2019-04-18T17:59:51.148Z,26
2019-04-18T18:05:00.876Z,25
2019-04-18T18:09:53.671Z,19
2019-04-18T18:14:56.162Z,21
2019-04-18T18:24:52.121Z,18
2019-04-18T18:29:53.677Z,25
2019-04-18T18:34:59.841Z,22
2019-04-18T18:39:52.495Z,21
2019-04-18T18:44:55.827Z,24
2019-04-18T18:49:51.935Z,30
2019-04-18T18:54:52.103Z,26
2019-04-18T18:59:56.769Z,26
2019-04-18T19:05:10.733Z,21
2019-04-18T19:10:05.656Z,27
2019-04-18T19:15:00.070Z,30
2019-04-18T19:19:51.880Z,35
2019-04-18T19:24:56.167Z,35
2019-04-18T19:29:59.155Z,38
2019-04-18T19:34:58.123Z,45
2019-04-18T19:40:17.062Z,37
2019-04-18T19:44:58.923Z,39
2019-04-18T19:49:50.984Z,37
2019-04-18T19:54:51.604Z,39
2019-04-18T19:59:51.356Z,42
2019-04-18T20:04:54.127Z,40
2019-04-18T20:10:03.211Z,36
2019-04-18T20:14:52.208Z,39
2019-04-18T20:19:51.299Z,42
2019-04-18T20:24:51.746Z,46
2019-04-18T20:29:52.428Z,41
2019-04-18T20:34:54.322Z,46
2019-04-18T20:40:13.005Z,42
2019-04-18T20:44:55.241Z,41
2019-04-18T20:50:02.776Z,44
2019-04-18T20:55:09.445Z,46
2019-04-18T20:59:51.180Z,42
2019-04-18T21:04:53.656Z,44
2019-04-18T21:09:59.693Z,43
2019-04-18T21:14:51.059Z,42
2019-04-18T21:19:52.137Z,39
2019-04-18T21:24:52.043Z,36
2019-04-18T21:29:51.829Z,40
2019-04-18T21:34:58.988Z,45
2019-04-18T21:39:50.898Z,45
2019-04-18T21:44:53.959Z,36
2019-04-18T21:49:51.090Z,40
2019-04-18T21:54:52.134Z,43
2019-04-18T22:00:00.767Z,40
2019-04-18T22:04:51.409Z,42
2019-04-18T22:09:51.957Z,40
2019-04-18T22:14:55.922Z,36
2019-04-18T22:19:51.479Z,33
2019-04-18T22:24:59.637Z,49
2019-04-18T22:29:55.931Z,47
2019-04-18T22:34:56.356Z,40
2019-04-18T22:39:50.863Z,33
2019-04-18T22:44:56.074Z,38
2019-04-18T22:49:52.515Z,38
2019-04-18T22:54:51.529Z,42
2019-04-18T22:59:53.866Z,41
2019-04-18T23:04:50.681Z,31
2019-04-18T23:09:53.811Z,38
2019-04-18T23:14:54.334Z,40
2019-04-18T23:19:53.057Z,39
2019-04-18T23:24:51.236Z,46
2019-04-18T23:29:52.422Z,36
2019-04-18T23:34:50.618Z,41
2019-04-18T23:39:52.312Z,41
2019-04-18T23:44:53.801Z,49
2019-04-18T23:49:50.713Z,40
2019-04-18T23:54:51.826Z,46
2019-04-18T23:59:50.951Z,64
